createdAt,value
2023-08-09T00:04:47.817Z,19.60
2023-08-09T00:09:50.951Z,19.70
2023-08-09T00:14:55.434Z,19.70
2023-08-09T00:19:58.634Z,19.70
2023-08-09T00:25:01.819Z,19.70
2023-08-09T00:30:08.729Z,19.70
2023-08-09T00:35:11.958Z,19.70
2023-08-09T00:40:15.054Z,19.70
2023-08-09T00:45:19.592Z,19.60
2023-08-09T00:50:22.949Z,19.40
2023-08-09T00:55:26.191Z,19.50
2023-08-09T01:00:30.839Z,19.40
2023-08-09T01:05:40.086Z,19.50
2023-08-09T01:10:50.765Z,19.40
2023-08-09T01:15:56.156Z,19.40
2023-08-09T01:21:01.501Z,19.50
2023-08-09T01:26:06.678Z,19.50
2023-08-09T01:31:09.842Z,19.50
2023-08-09T01:36:20.753Z,19.60
2023-08-09T01:41:25.259Z,19.50
2023-08-09T01:46:29.107Z,19.60
2023-08-09T01:51:32.298Z,19.60
2023-08-09T01:56:37.374Z,19.60
2023-08-09T02:01:40.512Z,19.50
2023-08-09T02:06:43.775Z,19.40
2023-08-09T02:11:48.321Z,19.30
2023-08-09T02:16:51.622Z,19.20
2023-08-09T02:21:54.764Z,19.00
2023-08-09T02:26:59.499Z,18.90
2023-08-09T02:32:03.300Z,18.70
2023-08-09T02:37:06.595Z,18.70
2023-08-09T02:42:11.148Z,18.60
2023-08-09T02:47:14.254Z,18.50
2023-08-09T02:52:17.502Z,18.50
2023-08-09T02:57:21.989Z,18.60
2023-08-09T03:02:25.166Z,18.60
2023-08-09T03:07:28.966Z,18.70
2023-08-09T03:12:33.484Z,18.70
2023-08-09T03:17:36.747Z,18.80
2023-08-09T03:22:39.909Z,18.80
2023-08-09T03:27:44.598Z,18.90
2023-08-09T03:32:47.798Z,19.00
2023-08-09T03:37:51.772Z,19.00
2023-08-09T03:42:56.256Z,18.90
2023-08-09T03:47:59.473Z,18.90
2023-08-09T03:53:02.643Z,18.70
2023-08-09T03:58:07.293Z,18.50
2023-08-09T04:03:10.470Z,18.50
2023-08-09T04:08:13.760Z,18.50
2023-08-09T04:13:18.256Z,18.50
2023-08-09T04:18:21.849Z,18.40
2023-08-09T04:23:25.603Z,18.30
2023-08-09T04:28:30.286Z,18.20
2023-08-09T04:33:33.546Z,18.10
2023-08-09T04:38:36.765Z,18.00
2023-08-09T04:43:44.800Z,18.00
2023-08-09T04:48:48.133Z,18.00
2023-08-09T04:53:51.233Z,18.10
2023-08-09T04:58:55.727Z,18.10
2023-08-09T05:03:58.972Z,18.00
2023-08-09T05:09:02.146Z,18.00
2023-08-09T05:14:07.790Z,17.90
2023-08-09T05:19:11.302Z,17.90
2023-08-09T05:24:15.682Z,17.80
2023-08-09T05:29:20.162Z,17.80
2023-08-09T05:34:23.450Z,17.80
2023-08-09T05:39:26.902Z,17.80
2023-08-09T05:44:31.540Z,17.70
2023-08-09T05:49:35.924Z,17.70
2023-08-09T05:54:39.093Z,17.70
2023-08-09T05:59:43.673Z,17.70
2023-08-09T06:04:46.897Z,17.60
2023-08-09T06:09:50.064Z,17.60
2023-08-09T06:14:54.565Z,17.60
2023-08-09T06:19:57.676Z,17.60
2023-08-09T06:25:01.012Z,17.60
2023-08-09T06:30:07.292Z,17.60
2023-08-09T06:35:14.028Z,17.60
2023-08-09T06:40:18.144Z,17.70
2023-08-09T06:45:22.662Z,17.70
2023-08-09T06:50:25.892Z,17.70
2023-08-09T06:55:29.050Z,17.80
2023-08-09T07:00:33.564Z,17.80
2023-08-09T07:05:36.680Z,17.90
2023-08-09T07:10:39.961Z,17.90
2023-08-09T07:15:44.428Z,17.90
2023-08-09T07:20:47.652Z,18.00
2023-08-09T07:25:50.935Z,18.00
2023-08-09T07:30:56.335Z,18.00
2023-08-09T07:35:59.482Z,18.10
2023-08-09T07:41:03.135Z,18.10
2023-08-09T07:46:08.031Z,18.20
2023-08-09T07:51:13.390Z,18.20
2023-08-09T07:56:16.841Z,18.30
2023-08-09T08:01:21.465Z,18.40
2023-08-09T08:06:24.677Z,18.50
2023-08-09T08:11:27.809Z,18.50
2023-08-09T08:16:32.861Z,18.60
2023-08-09T08:21:36.257Z,18.70
2023-08-09T08:26:40.503Z,18.70
2023-08-09T08:31:45.345Z,18.80
2023-08-09T08:36:48.696Z,18.80
2023-08-09T08:41:52.843Z,18.90
2023-08-09T08:46:57.468Z,19.00
2023-08-09T08:52:02.733Z,19.00
2023-08-09T08:57:08.683Z,19.10
2023-08-09T09:02:14.369Z,19.10
2023-08-09T09:07:17.568Z,19.20
2023-08-09T09:12:22.366Z,19.30
2023-08-09T09:17:28.444Z,19.40
2023-08-09T09:22:35.575Z,19.40
2023-08-09T09:27:41.774Z,19.50
2023-08-09T09:32:58.294Z,19.60
2023-08-09T09:38:03.166Z,19.60
2023-08-09T09:43:07.562Z,19.60
2023-08-09T09:48:19.212Z,19.60
2023-08-09T09:53:23.037Z,19.60
2023-08-09T09:58:26.188Z,19.60
2023-08-09T10:03:43.936Z,19.60
2023-08-09T10:08:57.646Z,19.60
2023-08-09T10:14:05.188Z,19.70
2023-08-09T10:19:16.165Z,19.70
2023-08-09T10:24:20.043Z,19.90
2023-08-09T10:29:26.220Z,20.10
2023-08-09T10:34:44.355Z,20.20
2023-08-09T10:39:49.731Z,20.30
2023-08-09T10:44:53.559Z,20.50
2023-08-09T10:50:04.990Z,20.60
2023-08-09T10:55:38.393Z,20.70
2023-08-09T11:00:42.862Z,20.70
2023-08-09T11:05:47.657Z,20.80
2023-08-09T11:10:50.794Z,20.90
2023-08-09T11:15:54.676Z,21.10
2023-08-09T11:20:59.194Z,21.30
2023-08-09T11:26:03.644Z,21.40
2023-08-09T11:31:07.423Z,21.40
2023-08-09T11:36:12.177Z,21.50
2023-08-09T11:41:20.906Z,21.50
2023-08-09T11:46:24.972Z,21.50
2023-08-09T11:51:32.674Z,21.60
2023-08-09T11:56:38.003Z,21.80
2023-08-09T12:01:43.005Z,21.90
2023-08-09T12:06:52.189Z,22.00
2023-08-09T12:11:55.649Z,22.10
2023-08-09T12:16:59.105Z,22.30
2023-08-09T12:22:05.409Z,22.40
2023-08-09T12:27:08.866Z,22.50
2023-08-09T12:32:12.204Z,22.60
2023-08-09T12:37:16.848Z,22.70
2023-08-09T12:42:19.970Z,22.70
2023-08-09T12:47:23.121Z,22.70
2023-08-09T12:52:27.624Z,22.60
2023-08-09T12:57:30.858Z,22.50
2023-08-09T13:02:34.077Z,22.50
2023-08-09T13:07:38.602Z,22.50
2023-08-09T13:12:41.730Z,22.50
2023-08-09T13:17:46.326Z,22.50
2023-08-09T13:22:50.879Z,22.30
2023-08-09T13:27:54.098Z,22.10
2023-08-09T13:32:57.965Z,22.00
2023-08-09T13:38:05.757Z,21.70
2023-08-09T13:43:08.911Z,21.60
2023-08-09T13:48:12.129Z,21.40
2023-08-09T13:53:17.078Z,21.30
2023-08-09T13:58:20.236Z,21.30
2023-08-09T14:03:23.447Z,21.20
2023-08-09T14:08:27.941Z,21.10
2023-08-09T14:13:31.833Z,21.10
2023-08-09T14:18:35.040Z,21.00
2023-08-09T14:23:40.747Z,21.00
2023-08-09T14:28:44.231Z,20.90
2023-08-09T14:33:50.146Z,21.00
2023-08-09T14:38:54.872Z,21.00
2023-08-09T14:43:58.000Z,21.00
2023-08-09T14:54:08.613Z,21.10
2023-08-09T14:59:11.951Z,21.10
2023-08-09T15:04:19.604Z,21.10
2023-08-09T15:09:25.442Z,21.00
2023-08-09T15:14:28.574Z,21.00
2023-08-09T15:19:31.728Z,21.10
2023-08-09T15:24:36.274Z,21.10
2023-08-09T15:29:39.408Z,21.10
2023-08-09T15:34:42.742Z,21.10
2023-08-09T15:39:47.279Z,21.10
2023-08-09T15:44:50.399Z,21.10
2023-08-09T15:49:53.530Z,21.20
2023-08-09T15:54:58.047Z,21.20
2023-08-09T16:00:01.208Z,21.20
2023-08-09T16:05:04.705Z,21.20
2023-08-09T16:10:10.971Z,21.30
2023-08-09T16:15:14.140Z,21.30
2023-08-09T16:20:17.281Z,21.30
2023-08-09T16:25:22.482Z,21.30
2023-08-09T16:30:25.884Z,21.40
2023-08-09T16:35:30.380Z,21.40
2023-08-09T16:40:36.332Z,21.40
2023-08-09T16:45:39.510Z,21.40
2023-08-09T16:50:42.599Z,21.50
2023-08-09T16:55:47.562Z,21.50
2023-08-09T17:00:50.767Z,21.60
2023-08-09T17:05:53.949Z,21.60
2023-08-09T17:10:58.502Z,21.60
2023-08-09T17:16:01.944Z,21.70
2023-08-09T17:21:06.517Z,21.70
2023-08-09T17:26:12.549Z,21.70
2023-08-09T17:31:15.793Z,21.70
2023-08-09T17:36:18.974Z,21.70
2023-08-09T17:41:23.564Z,21.70
2023-08-09T17:46:26.751Z,21.70
2023-08-09T17:51:29.956Z,21.70
2023-08-09T17:56:34.450Z,21.70
2023-08-09T18:01:37.669Z,21.70
2023-08-09T18:06:40.903Z,21.70
2023-08-09T18:11:45.423Z,21.70
2023-08-09T18:16:49.843Z,21.70
2023-08-09T18:21:52.995Z,21.70
2023-08-09T18:26:57.563Z,21.70
2023-08-09T18:32:00.746Z,21.60
2023-08-09T18:37:04.166Z,21.50
2023-08-09T18:42:09.602Z,21.50
2023-08-09T18:47:12.876Z,21.50
2023-08-09T18:52:16.067Z,21.40
2023-08-09T18:57:20.609Z,21.30
2023-08-09T19:02:23.761Z,21.30
2023-08-09T19:07:27.102Z,21.20
2023-08-09T19:12:31.684Z,21.10
2023-08-09T19:17:35.531Z,21.10
2023-08-09T19:22:38.850Z,21.10
2023-08-09T19:27:43.419Z,21.10
2023-08-09T19:32:46.561Z,21.00
2023-08-09T19:37:49.765Z,20.90
2023-08-09T19:42:54.240Z,20.90
2023-08-09T19:48:00.254Z,20.90
2023-08-09T19:53:03.673Z,20.80
2023-08-09T19:58:08.153Z,20.70
2023-08-09T20:03:11.374Z,20.60
2023-08-09T20:08:14.587Z,20.50
2023-08-09T20:13:22.426Z,20.50
2023-08-09T20:18:26.275Z,20.50
2023-08-09T20:23:29.518Z,20.40
2023-08-09T20:28:33.998Z,20.40
2023-08-09T20:33:37.137Z,20.40
2023-08-09T20:38:40.278Z,20.30
2023-08-09T20:43:44.749Z,20.20
2023-08-09T20:48:47.879Z,20.20
2023-08-09T20:53:51.434Z,20.00
2023-08-09T20:58:56.220Z,19.80
2023-08-09T21:04:00.325Z,19.70
2023-08-09T21:09:03.553Z,19.60
2023-08-09T21:14:08.085Z,19.50
2023-08-09T21:19:11.185Z,19.30
2023-08-09T21:29:24.482Z,18.90
2023-08-09T21:34:27.739Z,18.80
2023-08-09T21:39:30.870Z,18.70
2023-08-09T21:44:35.423Z,18.60
2023-08-09T21:49:38.526Z,18.50
2023-08-09T21:54:41.643Z,18.50
2023-08-09T21:59:46.214Z,18.50
2023-08-09T22:04:49.335Z,18.50
2023-08-09T22:09:52.468Z,18.60
2023-08-09T22:14:56.948Z,18.60
2023-08-09T22:20:00.055Z,18.60
2023-08-09T22:25:03.720Z,18.60
2023-08-09T22:30:09.667Z,18.60
2023-08-09T22:35:12.804Z,18.60
2023-08-09T22:40:15.987Z,18.70
2023-08-09T22:45:20.776Z,18.70
2023-08-09T22:50:24.663Z,18.60
2023-08-09T22:55:27.933Z,18.60
2023-08-09T23:00:32.805Z,18.50
2023-08-09T23:05:36.261Z,18.50
2023-08-09T23:10:39.409Z,18.40
2023-08-09T23:15:46.248Z,18.40
2023-08-09T23:20:49.380Z,18.30
2023-08-09T23:25:52.533Z,18.30
2023-08-09T23:30:59.260Z,18.30
2023-08-09T23:36:03.892Z,18.20
2023-08-09T23:41:09.186Z,18.20
2023-08-09T23:46:13.758Z,18.20
2023-08-09T23:51:16.930Z,18.00
2023-08-09T23:56:20.070Z,17.90
